Terminal Aerodrome Forecast
Issued by NWS Sioux Falls, SD

Home | Current Version | Previous Version | Graphics & Text | Print | Product List | Glossary On
Versions: 1 2 3 4 5 6 7 8 9 10 11 12 13 14 15 16 17 18 19 20 21 22 23 24
409
FTUS43 KFSD 211805 AAA
TAFFSD
TAF AMD
KFSD 211805Z 2118/2218 18004KT P6SM VCSH OVC010
     FM212100 18004KT P6SM BKN025
     FM212300 18004KT P6SM BKN035
     FM220200 14004KT P6SM SCT250
     FM220900 VRB03KT 3SM BR SCT045
     FM221300 13005KT P6SM SCT045=

USA.gov is the U.S. government's official web portal to all federal, state and local government web resources and services.